sensor_id;sensor_type;location;lat;lon;timestamp;pressure;altitude;pressure_sealevel;temperature;humidity
21900;BME280;11114;50.658;12.704;2024-02-23T17:32:52;94332.75;;;1.73;67.94
21900;BME280;11114;50.658;12.704;2024-02-23T17:35:40;94334.66;;;1.79;69.13
21900;BME280;11114;50.658;12.704;2024-02-23T17:38:27;94339.13;;;1.93;69.78
21900;BME280;11114;50.658;12.704;2024-02-23T17:41:13;94327.38;;;2.05;69.59
21900;BME280;11114;50.658;12.704;2024-02-23T17:44:06;94324.06;;;2.18;70.07
21900;BME280;11114;50.658;12.704;2024-02-23T17:46:55;94317.16;;;2.33;69.37
21900;BME280;11114;50.658;12.704;2024-02-23T17:49:42;94327.47;;;2.41;69.28
21900;BME280;11114;50.658;12.704;2024-02-23T17:52:28;94325.97;;;2.47;69.11
21900;BME280;11114;50.658;12.704;2024-02-23T17:55:15;94323.81;;;2.50;68.96
21900;BME280;11114;50.658;12.704;2024-02-23T17:58:03;94323.13;;;2.56;68.97
21900;BME280;11114;50.658;12.704;2024-02-23T18:01:04;94332.16;;;2.60;68.84
21900;BME280;11114;50.658;12.704;2024-02-23T18:03:51;94341.09;;;2.58;68.39
21900;BME280;11114;50.658;12.704;2024-02-23T18:06:38;94346.09;;;2.59;68.69
21900;BME280;11114;50.658;12.704;2024-02-23T18:09:25;94346.97;;;2.66;68.62
21900;BME280;11114;50.658;12.704;2024-02-23T18:12:11;94338.88;;;2.69;68.79
21900;BME280;11114;50.658;12.704;2024-02-23T18:14:58;94330.13;;;2.70;68.65
21900;BME280;11114;50.658;12.704;2024-02-23T18:17:44;94336.28;;;2.69;68.91
21900;BME280;11114;50.658;12.704;2024-02-23T18:20:31;94337.53;;;2.73;68.75
21900;BME280;11114;50.658;12.704;2024-02-23T18:23:18;94326.81;;;2.76;68.40
21900;BME280;11114;50.658;12.704;2024-02-23T18:26:04;94336.47;;;2.82;68.56
21900;BME280;11114;50.658;12.704;2024-02-23T18:28:50;94324.78;;;2.86;68.62
21900;BME280;11114;50.658;12.704;2024-02-23T18:31:36;94317.47;;;2.90;68.48
21900;BME280;11114;50.658;12.704;2024-02-23T18:34:23;94317.00;;;2.86;68.20
21900;BME280;11114;50.658;12.704;2024-02-23T18:37:11;94327.19;;;2.88;68.40
21900;BME280;11114;50.658;12.704;2024-02-23T18:39:58;94327.28;;;2.94;68.48
21900;BME280;11114;50.658;12.704;2024-02-23T18:42:44;94327.75;;;2.98;68.27
21900;BME280;11114;50.658;12.704;2024-02-23T18:45:31;94339.72;;;2.99;67.97
21900;BME280;11114;50.658;12.704;2024-02-23T18:48:18;94348.38;;;2.91;67.89
21900;BME280;11114;50.658;12.704;2024-02-23T18:51:07;94360.28;;;2.86;68.22
21900;BME280;11114;50.658;12.704;2024-02-23T18:53:54;94361.13;;;2.78;68.56
21900;BME280;11114;50.658;12.704;2024-02-23T18:56:41;94354.88;;;2.73;68.63
21900;BME280;11114;50.658;12.704;2024-02-23T18:59:28;94344.97;;;2.76;69.13
21900;BME280;11114;50.658;12.704;2024-02-23T19:02:15;94345.84;;;2.83;68.80
21900;BME280;11114;50.658;12.704;2024-02-23T19:05:02;94334.34;;;2.86;68.80
21900;BME280;11114;50.658;12.704;2024-02-23T19:07:49;94318.97;;;2.84;68.51
21900;BME280;11114;50.658;12.704;2024-02-23T19:10:35;94312.63;;;2.87;68.61
21900;BME280;11114;50.658;12.704;2024-02-23T19:13:22;94331.25;;;2.90;68.45
21900;BME280;11114;50.658;12.704;2024-02-23T19:16:14;94347.31;;;2.86;67.80
21900;BME280;11114;50.658;12.704;2024-02-23T19:19:01;94347.22;;;2.79;68.38
21900;BME280;11114;50.658;12.704;2024-02-23T19:21:47;94367.28;;;2.77;68.56
21900;BME280;11114;50.658;12.704;2024-02-23T19:24:35;94364.06;;;2.75;68.62
21900;BME280;11114;50.658;12.704;2024-02-23T19:27:21;94366.66;;;2.75;68.13
21900;BME280;11114;50.658;12.704;2024-02-23T19:30:08;94364.44;;;2.72;68.81
21900;BME280;11114;50.658;12.704;2024-02-23T19:32:57;94370.59;;;2.71;69.10
21900;BME280;11114;50.658;12.704;2024-02-23T19:35:44;94369.78;;;2.71;68.78
21900;BME280;11114;50.658;12.704;2024-02-23T19:38:31;94367.81;;;2.73;68.80
21900;BME280;11114;50.658;12.704;2024-02-23T19:41:17;94359.72;;;2.76;68.82
21900;BME280;11114;50.658;12.704;2024-02-23T19:44:05;94360.50;;;2.76;68.85
21900;BME280;11114;50.658;12.704;2024-02-23T19:46:51;94359.34;;;2.79;68.52
21900;BME280;11114;50.658;12.704;2024-02-23T19:49:38;94351.13;;;2.75;68.58
21900;BME280;11114;50.658;12.704;2024-02-23T19:52:25;94354.34;;;2.77;68.57
21900;BME280;11114;50.658;12.704;2024-02-23T19:55:12;94352.38;;;2.79;68.69
21900;BME280;11114;50.658;12.704;2024-02-23T19:57:58;94344.78;;;2.78;68.62
21900;BME280;11114;50.658;12.704;2024-02-23T20:00:45;94342.19;;;2.78;68.69
21900;BME280;11114;50.658;12.704;2024-02-23T20:03:31;94329.75;;;2.73;68.46
21900;BME280;11114;50.658;12.704;2024-02-23T20:06:17;94328.22;;;2.64;68.87
21900;BME280;11114;50.658;12.704;2024-02-23T20:09:04;94309.81;;;2.59;68.93
21900;BME280;11114;50.658;12.704;2024-02-23T20:11:51;94302.75;;;2.53;69.04
21900;BME280;11114;50.658;12.704;2024-02-23T20:14:37;94280.63;;;2.51;69.38
21900;BME280;11114;50.658;12.704;2024-02-23T20:17:24;94278.03;;;2.51;69.41
21900;BME280;11114;50.658;12.704;2024-02-23T20:20:12;94297.47;;;2.47;69.36
21900;BME280;11114;50.658;12.704;2024-02-23T20:22:59;94319.88;;;2.40;69.22
21900;BME280;11114;50.658;12.704;2024-02-23T20:25:46;94310.72;;;2.29;69.66
21900;BME280;11114;50.658;12.704;2024-02-23T20:28:33;94317.34;;;2.32;69.50
21900;BME280;11114;50.658;12.704;2024-02-23T20:31:20;94319.50;;;2.28;69.79
21900;BME280;11114;50.658;12.704;2024-02-23T20:34:06;94320.09;;;2.30;69.97
21900;BME280;11114;50.658;12.704;2024-02-23T20:36:53;94320.22;;;2.37;69.99
21900;BME280;11114;50.658;12.704;2024-02-23T20:39:43;94323.09;;;2.42;69.92
21900;BME280;11114;50.658;12.704;2024-02-23T20:42:30;94324.22;;;2.39;69.76
21900;BME280;11114;50.658;12.704;2024-02-23T20:45:17;94333.50;;;2.34;69.88
21900;BME280;11114;50.658;12.704;2024-02-23T20:48:03;94338.53;;;2.35;70.07
21900;BME280;11114;50.658;12.704;2024-02-23T20:50:50;94360.66;;;2.38;70.28
21900;BME280;11114;50.658;12.704;2024-02-23T20:53:37;94338.72;;;2.48;70.18
21900;BME280;11114;50.658;12.704;2024-02-23T20:56:23;94345.88;;;2.46;69.92
21900;BME280;11114;50.658;12.704;2024-02-23T20:59:10;94348.28;;;2.48;70.07
21900;BME280;11114;50.658;12.704;2024-02-23T21:01:57;94352.56;;;2.41;70.20
21900;BME280;11114;50.658;12.704;2024-02-23T21:04:45;94355.94;;;2.41;70.16
21900;BME280;11114;50.658;12.704;2024-02-23T21:07:32;94357.28;;;2.37;70.17
21900;BME280;11114;50.658;12.704;2024-02-23T21:10:19;94349.34;;;2.39;70.32
21900;BME280;11114;50.658;12.704;2024-02-23T21:13:05;94351.06;;;2.46;70.57
21900;BME280;11114;50.658;12.704;2024-02-23T21:15:52;94346.56;;;2.40;70.22
21900;BME280;11114;50.658;12.704;2024-02-23T21:18:42;94355.03;;;2.34;70.40
21900;BME280;11114;50.658;12.704;2024-02-23T21:21:29;94344.38;;;2.29;70.36
21900;BME280;11114;50.658;12.704;2024-02-23T21:24:15;94339.38;;;2.28;70.63
21900;BME280;11114;50.658;12.704;2024-02-23T21:27:02;94340.66;;;2.32;70.78
21900;BME280;11114;50.658;12.704;2024-02-23T21:29:48;94336.78;;;2.28;70.83
21900;BME280;11114;50.658;12.704;2024-02-23T21:32:36;94334.38;;;2.26;70.75
21900;BME280;11114;50.658;12.704;2024-02-23T21:35:23;94327.88;;;2.22;70.91
21900;BME280;11114;50.658;12.704;2024-02-23T21:38:10;94315.00;;;2.15;71.34
21900;BME280;11114;50.658;12.704;2024-02-23T21:40:57;94306.59;;;2.13;71.26
21900;BME280;11114;50.658;12.704;2024-02-23T21:43:44;94313.75;;;2.11;71.57
21900;BME280;11114;50.658;12.704;2024-02-23T21:46:30;94305.00;;;2.12;71.40
21900;BME280;11114;50.658;12.704;2024-02-23T21:49:16;94314.56;;;2.11;71.57
21900;BME280;11114;50.658;12.704;2024-02-23T21:52:04;94324.13;;;2.11;71.62
21900;BME280;11114;50.658;12.704;2024-02-23T21:54:51;94325.69;;;2.12;71.67
21900;BME280;11114;50.658;12.704;2024-02-23T21:57:38;94324.44;;;2.08;71.56
21900;BME280;11114;50.658;12.704;2024-02-23T22:00:25;94314.09;;;2.08;71.67
21900;BME280;11114;50.658;12.704;2024-02-23T22:03:11;94312.22;;;2.02;71.53
21900;BME280;11114;50.658;12.704;2024-02-23T22:05:57;94309.78;;;2.00;71.90
21900;BME280;11114;50.658;12.704;2024-02-23T22:08:44;94308.00;;;2.01;71.79
21900;BME280;11114;50.658;12.704;2024-02-23T22:11:30;94302.84;;;2.01;71.58
21900;BME280;11114;50.658;12.704;2024-02-23T22:14:17;94306.22;;;2.01;71.61
21900;BME280;11114;50.658;12.704;2024-02-23T22:17:04;94323.16;;;2.04;71.54
21900;BME280;11114;50.658;12.704;2024-02-23T22:19:52;94314.81;;;2.02;71.48
21900;BME280;11114;50.658;12.704;2024-02-23T22:22:38;94315.94;;;1.99;71.40
21900;BME280;11114;50.658;12.704;2024-02-23T22:25:24;94314.34;;;1.98;71.41
21900;BME280;11114;50.658;12.704;2024-02-23T22:28:12;94318.06;;;1.96;71.16
21900;BME280;11114;50.658;12.704;2024-02-23T22:30:58;94312.59;;;1.91;71.34
21900;BME280;11114;50.658;12.704;2024-02-23T22:33:45;94315.19;;;1.91;71.31
21900;BME280;11114;50.658;12.704;2024-02-23T22:36:31;94324.38;;;1.93;71.45
21900;BME280;11114;50.658;12.704;2024-02-23T22:39:19;94323.88;;;1.98;71.30
21900;BME280;11114;50.658;12.704;2024-02-23T22:42:05;94326.91;;;2.01;71.17
21900;BME280;11114;50.658;12.704;2024-02-23T22:44:52;94335.03;;;1.98;70.73
21900;BME280;11114;50.658;12.704;2024-02-23T22:47:39;94340.22;;;1.98;70.72
21900;BME280;11114;50.658;12.704;2024-02-23T22:50:26;94345.66;;;2.03;70.89
21900;BME280;11114;50.658;12.704;2024-02-23T22:53:13;94351.47;;;2.05;71.04
21900;BME280;11114;50.658;12.704;2024-02-23T22:55:59;94353.75;;;2.00;70.55
21900;BME280;11114;50.658;12.704;2024-02-23T22:58:46;94350.56;;;1.98;70.74
21900;BME280;11114;50.658;12.704;2024-02-23T23:01:32;94346.47;;;2.04;70.48
21900;BME280;11114;50.658;12.704;2024-02-23T23:04:19;94342.63;;;2.00;70.66
21900;BME280;11114;50.658;12.704;2024-02-23T23:07:06;94360.72;;;2.00;70.64
21900;BME280;11114;50.658;12.704;2024-02-23T23:10:05;94363.31;;;2.00;70.59
21900;BME280;11114;50.658;12.704;2024-02-23T23:12:53;94361.69;;;1.99;70.95
21900;BME280;11114;50.658;12.704;2024-02-23T23:15:39;94350.56;;;1.98;70.72
21900;BME280;11114;50.658;12.704;2024-02-23T23:18:26;94348.81;;;1.91;70.47
21900;BME280;11114;50.658;12.704;2024-02-23T23:21:16;94357.56;;;1.90;70.63
21900;BME280;11114;50.658;12.704;2024-02-23T23:23:53;94348.22;;;1.81;71.04
21900;BME280;11114;50.658;12.704;2024-02-23T23:26:40;94356.78;;;1.81;70.92
21900;BME280;11114;50.658;12.704;2024-02-23T23:29:27;94351.50;;;1.75;70.84
21900;BME280;11114;50.658;12.704;2024-02-23T23:32:14;94362.00;;;1.73;71.23
21900;BME280;11114;50.658;12.704;2024-02-23T23:35:00;94353.44;;;1.73;71.33
21900;BME280;11114;50.658;12.704;2024-02-23T23:37:47;94352.13;;;1.77;71.34
21900;BME280;11114;50.658;12.704;2024-02-23T23:40:33;94350.16;;;1.79;71.03
21900;BME280;11114;50.658;12.704;2024-02-23T23:43:19;94356.50;;;1.76;71.10
21900;BME280;11114;50.658;12.704;2024-02-23T23:46:06;94342.13;;;1.74;71.15
